KEET

Shelby County Airport

Alabaster, Alabama, USA
METAR KEET 212253Z AUTO 26005KT 10SM OVC070 28/21 A3000 RMK AO2 SLP150 T02830206
Observed Flight Rules
Aug-21 @ 22:53 UTC (52 minutes ago) Visual Flight Rules
Wind Visibility Clouds
260° at 5 knots 10 miles
  • Overcast at 7,000' AGL
Temperatures Readings
Current 28°C / 82°F
Dewpoint 21°C / 70°F
Humidity 66%
Altimeter 30" Hg
Pressure 1015 hPa
Elevation 173
METAR KEET 212253Z AUTO 26005KT 10SM OVC070 28/21 A3000 RMK AO2 SLP150 T02830206
Observed Flight Rules
Aug-21 @ 22:53 UTC
(52 minutes ago)
VFR
Wind Visibility
260° at 5 knots 10 miles
Clouds
  • Overcast at 7,000' AGL
Temperature Dewpoint
28°C / 82°F 21°C / 70°F
Humidity Altimeter Pressure
66% 30" Hg 1015 hPa